createdAt,value
2022-08-07T00:02:36.787Z,98879.75
2022-08-07T00:05:11.638Z,98883.72
2022-08-07T00:07:41.919Z,98879.78
2022-08-07T00:10:27.185Z,98888.06
2022-08-07T00:13:02.217Z,98878.22
2022-08-07T00:15:37.798Z,98877.03
2022-08-07T00:18:19.340Z,98879.03
2022-08-07T00:20:50.328Z,98881.38
2022-08-07T00:23:21.130Z,98881.03
2022-08-07T00:26:00.041Z,98879.84
2022-08-07T00:28:34.004Z,98877.84
2022-08-07T00:31:12.331Z,98880.25
2022-08-07T00:33:43.809Z,98876.31
2022-08-07T00:36:17.865Z,98867.25
2022-08-07T00:38:47.691Z,98883.81
2022-08-07T00:41:28.957Z,98871.22
2022-08-07T00:44:02.871Z,98873.56
2022-08-07T00:46:34.262Z,98879.06
2022-08-07T00:49:06.723Z,98879.88
2022-08-07T00:51:57.246Z,98885.00
2022-08-07T00:54:28.296Z,98883.41
2022-08-07T00:57:02.548Z,98887.34
2022-08-07T00:59:35.840Z,98885.00
2022-08-07T01:02:08.935Z,98886.59
2022-08-07T01:04:44.973Z,98889.31
2022-08-07T01:07:15.909Z,98882.63
2022-08-07T01:10:05.911Z,98884.19
2022-08-07T01:12:38.770Z,98880.25
2022-08-07T01:15:11.741Z,98881.03
2022-08-07T01:17:41.900Z,98881.41
2022-08-07T01:20:16.524Z,98881.41
2022-08-07T01:23:00.446Z,98884.16
2022-08-07T01:25:55.584Z,98874.34
2022-08-07T01:28:26.394Z,98875.50
2022-08-07T01:30:59.305Z,98880.59
2022-08-07T01:33:53.791Z,98869.97
2022-08-07T01:36:18.827Z,98871.97
2022-08-07T01:38:51.315Z,98879.03
2022-08-07T01:41:26.075Z,98872.75
2022-08-07T01:43:56.677Z,98878.63
2022-08-07T01:46:26.588Z,98877.06
2022-08-07T01:48:57.075Z,98880.59
2022-08-07T01:52:03.596Z,98874.31
2022-08-07T01:54:36.535Z,98871.16
2022-08-07T01:57:24.172Z,98871.53
2022-08-07T01:59:58.746Z,98864.03
2022-08-07T02:03:19.222Z,98875.06
2022-08-07T02:05:43.288Z,98865.63
2022-08-07T02:08:23.722Z,98874.28
2022-08-07T02:10:59.762Z,98864.03
2022-08-07T02:13:56.393Z,98855.38
2022-08-07T02:16:32.931Z,98856.19
2022-08-07T02:19:05.760Z,98846.69
2022-08-07T02:21:58.821Z,98854.59
2022-08-07T02:24:30.247Z,98856.50
2022-08-07T02:27:05.359Z,98858.13
2022-08-07T02:29:43.545Z,98851.38
2022-08-07T02:32:29.917Z,98850.94
2022-08-07T02:35:01.297Z,98853.38
2022-08-07T02:37:34.179Z,98858.06
2022-08-07T02:40:30.061Z,98849.81
2022-08-07T02:43:08.040Z,98844.25
2022-08-07T02:45:58.527Z,98850.56
2022-08-07T02:48:30.133Z,98847.00
2022-08-07T02:51:06.819Z,98850.59
2022-08-07T02:53:39.100Z,98842.63
2022-08-07T02:56:20.989Z,98844.59
2022-08-07T02:58:55.544Z,98839.91
2022-08-07T03:01:35.739Z,98844.22
2022-08-07T03:04:12.985Z,98836.38
2022-08-07T03:06:48.028Z,98838.72
2022-08-07T03:09:43.483Z,98839.13
2022-08-07T03:12:21.927Z,98832.88
2022-08-07T03:14:57.029Z,98849.03
2022-08-07T03:17:36.308Z,98841.88
2022-08-07T03:20:22.311Z,98840.28
2022-08-07T03:22:53.543Z,98849.31
2022-08-07T03:25:24.051Z,98844.94
2022-08-07T03:27:59.167Z,98854.41
2022-08-07T03:30:43.393Z,98842.16
2022-08-07T03:33:15.201Z,98844.94
2022-08-07T03:35:50.705Z,98856.31
2022-08-07T03:38:29.740Z,98848.84
2022-08-07T03:41:01.551Z,98842.53
2022-08-07T03:43:33.576Z,98839.03
2022-08-07T03:46:10.426Z,98848.78
2022-08-07T03:49:02.395Z,98847.97
2022-08-07T03:51:47.772Z,98847.13
2022-08-07T03:54:36.343Z,98841.56
2022-08-07T03:58:33.261Z,98835.00
2022-08-07T04:00:05.825Z,98841.69
2022-08-07T04:02:41.372Z,98840.84
2022-08-07T04:05:11.720Z,98852.59
2022-08-07T04:07:48.452Z,98846.28
2022-08-07T04:10:19.381Z,98846.34
2022-08-07T04:12:49.938Z,98847.19
2022-08-07T04:15:23.958Z,98851.78
2022-08-07T04:18:56.739Z,98847.94
2022-08-07T04:20:54.807Z,98852.19
2022-08-07T04:23:26.089Z,98853.06
2022-08-07T04:26:13.929Z,98859.31
2022-08-07T04:28:47.015Z,98851.84
2022-08-07T04:31:20.251Z,98858.56
2022-08-07T04:34:16.997Z,98873.84
2022-08-07T04:36:48.819Z,98865.59
2022-08-07T04:39:25.858Z,98879.34
2022-08-07T04:41:55.997Z,98882.47
2022-08-07T04:44:27.507Z,98876.72
2022-08-07T04:47:08.160Z,98875.09
2022-08-07T04:49:57.974Z,98879.78
2022-08-07T04:52:51.075Z,98881.75
2022-08-07T04:58:16.264Z,98882.53
2022-08-07T04:58:49.734Z,98884.06
2022-08-07T05:01:29.934Z,98885.28
2022-08-07T05:04:12.364Z,98887.28
2022-08-07T05:06:59.587Z,98884.50
2022-08-07T05:09:45.646Z,98882.69
2022-08-07T05:12:27.303Z,98883.78
2022-08-07T05:15:23.289Z,98885.03
2022-08-07T05:18:00.345Z,98885.81
2022-08-07T05:20:40.231Z,98890.53
2022-08-07T05:23:29.055Z,98891.78
2022-08-07T05:26:13.419Z,98882.53
2022-08-07T05:28:51.070Z,98904.19
2022-08-07T05:31:23.089Z,98893.22
2022-08-07T05:34:04.755Z,98902.28
2022-08-07T05:36:39.107Z,98902.34
2022-08-07T05:40:13.469Z,98898.72
2022-08-07T05:42:07.571Z,98900.28
2022-08-07T05:44:41.495Z,98902.19
2022-08-07T05:47:20.913Z,98903.00
2022-08-07T05:50:10.183Z,98903.34
2022-08-07T05:52:39.922Z,98908.09
2022-08-07T05:55:12.728Z,98905.78
2022-08-07T05:57:46.294Z,98904.97
2022-08-07T06:00:17.886Z,98904.91
2022-08-07T06:02:51.964Z,98909.97
2022-08-07T06:05:28.414Z,98917.09
2022-08-07T06:08:29.705Z,98920.16
2022-08-07T06:10:52.097Z,98918.94
2022-08-07T06:14:11.644Z,98918.88
2022-08-07T06:16:17.892Z,98928.81
2022-08-07T06:18:51.682Z,98922.00
2022-08-07T06:22:15.282Z,98918.50
2022-08-07T06:24:46.014Z,98919.00
2022-08-07T06:27:08.663Z,98917.00
2022-08-07T06:29:39.906Z,98915.75
2022-08-07T06:32:10.476Z,98916.00
2022-08-07T06:34:45.285Z,98910.22
2022-08-07T06:37:17.197Z,98904.78
2022-08-07T06:40:12.954Z,98904.09
2022-08-07T06:42:40.894Z,98902.19
2022-08-07T06:45:16.877Z,98895.13
2022-08-07T06:47:59.024Z,98895.06
2022-08-07T06:50:30.498Z,98897.31
2022-08-07T06:53:04.245Z,98896.69
2022-08-07T06:55:53.465Z,98896.59
2022-08-07T06:58:29.171Z,98898.38
2022-08-07T07:01:02.989Z,98894.31
2022-08-07T07:03:47.592Z,98899.84
2022-08-07T07:06:26.338Z,98900.22
2022-08-07T07:08:56.814Z,98890.63
2022-08-07T07:12:08.496Z,98891.16
2022-08-07T07:14:22.942Z,98891.41
2022-08-07T07:16:55.861Z,98887.59
2022-08-07T07:19:55.851Z,98888.91
2022-08-07T07:22:36.533Z,98887.88
2022-08-07T07:26:34.176Z,98896.53
2022-08-07T07:28:42.537Z,98897.31
2022-08-07T07:31:08.536Z,98879.22
2022-08-07T07:33:40.894Z,98892.44
2022-08-07T07:36:17.507Z,98890.25
2022-08-07T07:38:49.088Z,98885.56
2022-08-07T07:41:20.420Z,98886.78
2022-08-07T07:44:17.284Z,98879.25
2022-08-07T07:46:55.271Z,98879.34
2022-08-07T07:50:35.274Z,98885.78
2022-08-07T07:52:24.990Z,98875.38
2022-08-07T07:54:56.782Z,98872.78
2022-08-07T07:57:52.163Z,98872.09
2022-08-07T08:00:28.990Z,98865.41
2022-08-07T08:03:08.028Z,98865.28
2022-08-07T08:05:50.761Z,98864.28
2022-08-07T08:08:34.704Z,98857.47
2022-08-07T08:11:08.625Z,98864.63
2022-08-07T08:13:53.340Z,98868.53
2022-08-07T08:16:29.965Z,98859.69
2022-08-07T08:19:17.793Z,98859.47
2022-08-07T08:22:08.185Z,98860.91
2022-08-07T08:25:04.480Z,98857.81
2022-08-07T08:27:57.138Z,98861.34
2022-08-07T08:30:34.492Z,98856.34
2022-08-07T08:33:10.334Z,98854.69
2022-08-07T08:35:51.965Z,98853.28
2022-08-07T08:38:29.433Z,98854.56
2022-08-07T08:41:11.631Z,98852.00
2022-08-07T08:43:58.914Z,98847.69
2022-08-07T08:46:40.683Z,98845.50
2022-08-07T08:49:33.540Z,98845.06
2022-08-07T08:52:32.102Z,98838.97
2022-08-07T08:55:21.244Z,98846.69
2022-08-07T08:58:13.229Z,98831.56
2022-08-07T09:00:55.194Z,98836.75
2022-08-07T09:03:47.400Z,98841.44
2022-08-07T09:06:35.911Z,98837.97
2022-08-07T09:09:23.637Z,98846.19
2022-08-07T09:12:31.341Z,98844.34
2022-08-07T09:16:21.702Z,98843.13
2022-08-07T09:18:17.973Z,98840.34
2022-08-07T09:21:02.182Z,98855.06
2022-08-07T09:24:33.795Z,98845.50
2022-08-07T09:26:52.393Z,98848.50
2022-08-07T09:30:06.180Z,98848.97
2022-08-07T09:32:34.328Z,98843.75
2022-08-07T09:36:01.189Z,98847.00
2022-08-07T09:38:12.231Z,98829.16
2022-08-07T09:41:00.527Z,98835.69
2022-08-07T09:44:05.560Z,98848.56
2022-08-07T09:47:51.622Z,98827.47
2022-08-07T09:50:01.670Z,98827.66
2022-08-07T09:52:43.531Z,98835.38
2022-08-07T09:55:29.575Z,98821.00
2022-08-07T09:58:48.817Z,98823.91
2022-08-07T10:01:51.692Z,98816.28
2022-08-07T10:04:55.007Z,98807.41
2022-08-07T10:07:53.160Z,98809.31
2022-08-07T10:11:07.664Z,98803.72
2022-08-07T10:14:01.428Z,98801.69
2022-08-07T10:17:14.374Z,98800.28
2022-08-07T10:19:59.709Z,98800.28
2022-08-07T10:22:51.179Z,98789.38
2022-08-07T10:25:42.724Z,98790.19
2022-08-07T10:28:33.725Z,98786.28
2022-08-07T10:31:17.948Z,98782.22
2022-08-07T10:34:05.805Z,98779.59
2022-08-07T10:36:59.537Z,98769.72
2022-08-07T10:40:02.647Z,98770.75
2022-08-07T10:42:41.319Z,98774.44
2022-08-07T10:45:45.180Z,98766.44
2022-08-07T10:48:34.866Z,98752.84
2022-08-07T10:51:16.392Z,98751.41
2022-08-07T10:54:11.135Z,98755.66
2022-08-07T10:56:52.137Z,98744.06
2022-08-07T10:59:31.906Z,98738.59
2022-08-07T11:02:33.074Z,98741.38
2022-08-07T11:05:16.607Z,98742.75
2022-08-07T11:08:02.677Z,98736.06
2022-08-07T11:10:41.106Z,98734.69
2022-08-07T11:14:43.609Z,98737.41
2022-08-07T11:16:14.445Z,98731.44
2022-08-07T11:18:53.438Z,98726.28
2022-08-07T11:21:42.778Z,98721.88
2022-08-07T11:24:23.954Z,98723.25
2022-08-07T11:27:04.926Z,98705.91
2022-08-07T11:29:47.414Z,98713.06
2022-08-07T11:32:25.495Z,98715.50
2022-08-07T11:35:01.384Z,98707.72
2022-08-07T11:37:58.182Z,98700.59
2022-08-07T11:40:52.133Z,98706.09
2022-08-07T11:43:41.325Z,98700.38
2022-08-07T11:46:28.201Z,98697.28
2022-08-07T11:49:51.318Z,98698.50
2022-08-07T11:52:16.263Z,98689.69
2022-08-07T11:55:01.165Z,98695.44
2022-08-07T11:57:57.809Z,98703.84
2022-08-07T12:00:35.893Z,98701.63
2022-08-07T12:03:41.567Z,98687.28
2022-08-07T12:06:38.882Z,98689.13
2022-08-07T12:09:23.264Z,98690.56
2022-08-07T12:12:10.685Z,98686.91
2022-08-07T12:15:02.598Z,98690.47
2022-08-07T12:17:59.562Z,98688.56
2022-08-07T12:20:36.450Z,98675.63
2022-08-07T12:24:06.047Z,98670.72
2022-08-07T12:26:29.909Z,98670.72
2022-08-07T12:29:37.083Z,98677.41
2022-08-07T12:32:18.202Z,98660.63
2022-08-07T12:34:55.817Z,98669.63
2022-08-07T12:38:10.659Z,98661.38
2022-08-07T12:40:48.179Z,98660.13
2022-08-07T12:44:02.791Z,98660.56
2022-08-07T12:46:15.882Z,98660.28
2022-08-07T12:49:10.020Z,98660.19
2022-08-07T12:52:13.631Z,98653.28
2022-08-07T12:54:59.032Z,98659.44
2022-08-07T12:57:59.185Z,98644.31
2022-08-07T13:00:35.752Z,98652.22
2022-08-07T13:03:56.336Z,98649.16
2022-08-07T13:06:33.131Z,98646.66
2022-08-07T13:10:19.805Z,98645.22
2022-08-07T13:12:15.400Z,98641.56
2022-08-07T13:14:55.250Z,98637.75
2022-08-07T13:17:40.693Z,98638.59
2022-08-07T13:20:19.251Z,98631.91
2022-08-07T13:23:09.883Z,98626.28
2022-08-07T13:26:00.645Z,98625.31
2022-08-07T13:28:37.030Z,98633.16
2022-08-07T13:31:15.402Z,98622.19
2022-08-07T13:34:33.975Z,98622.63
2022-08-07T13:36:46.447Z,98621.84
2022-08-07T13:40:32.609Z,98620.31
2022-08-07T13:42:25.803Z,98606.03
2022-08-07T13:45:20.825Z,98609.75
2022-08-07T13:48:08.473Z,98608.19
2022-08-07T13:50:44.747Z,98602.50
2022-08-07T13:53:59.630Z,98602.78
2022-08-07T13:56:35.926Z,98598.31
2022-08-07T13:59:14.068Z,98597.34
2022-08-07T14:02:04.634Z,98589.28
2022-08-07T14:04:48.912Z,98594.91
2022-08-07T14:07:27.307Z,98590.47
2022-08-07T14:10:21.717Z,98586.38
2022-08-07T14:12:58.767Z,98579.72
2022-08-07T14:15:34.820Z,98579.56
2022-08-07T14:18:15.939Z,98573.03
2022-08-07T14:21:08.063Z,98569.25
2022-08-07T14:24:00.282Z,98565.66
2022-08-07T14:26:39.011Z,98564.06
2022-08-07T14:30:04.819Z,98565.94
2022-08-07T14:32:08.569Z,98559.47
2022-08-07T14:34:46.382Z,98558.44
2022-08-07T14:37:36.015Z,98556.41
2022-08-07T14:40:27.088Z,98560.09
2022-08-07T14:43:01.454Z,98560.72
2022-08-07T14:45:56.200Z,98563.25
2022-08-07T14:48:33.030Z,98554.91
2022-08-07T14:51:07.456Z,98555.56
2022-08-07T14:54:05.850Z,98555.50
2022-08-07T14:56:45.138Z,98548.00
2022-08-07T15:00:05.237Z,98548.00
2022-08-07T15:02:34.003Z,98546.53
2022-08-07T15:05:20.586Z,98546.84
2022-08-07T15:07:54.792Z,98548.91
2022-08-07T15:10:30.069Z,98548.25
2022-08-07T15:13:06.081Z,98546.84
2022-08-07T15:15:41.032Z,98539.13
2022-08-07T15:18:28.383Z,98544.47
2022-08-07T15:21:07.919Z,98540.97
2022-08-07T15:25:03.120Z,98541.44
2022-08-07T15:26:39.470Z,98539.31
2022-08-07T15:30:04.435Z,98535.94
2022-08-07T15:32:05.193Z,98527.59
2022-08-07T15:34:50.268Z,98532.06
2022-08-07T15:37:27.567Z,98522.66
2022-08-07T15:40:01.131Z,98527.59
2022-08-07T15:42:52.074Z,98538.50
2022-08-07T15:45:55.834Z,98527.28
2022-08-07T15:51:21.545Z,98533.00
2022-08-07T15:54:15.061Z,98525.16
2022-08-07T15:56:48.213Z,98523.41
2022-08-07T15:59:20.433Z,98527.00
2022-08-07T16:02:15.348Z,98522.47
2022-08-07T16:04:46.367Z,98521.94
2022-08-07T16:08:33.455Z,98524.03
2022-08-07T16:10:16.136Z,98522.72
2022-08-07T16:13:17.959Z,98519.16
2022-08-07T16:16:43.316Z,98514.97
2022-08-07T16:19:09.999Z,98521.38
2022-08-07T16:22:03.378Z,98516.19
2022-08-07T16:24:52.565Z,98523.00
2022-08-07T16:27:40.723Z,98512.72
2022-08-07T16:30:30.864Z,98508.97
2022-08-07T16:34:03.355Z,98514.09
2022-08-07T16:36:31.421Z,98502.72
2022-08-07T16:39:40.150Z,98517.97
2022-08-07T16:42:37.825Z,98504.47
2022-08-07T16:46:11.015Z,98515.41
2022-08-07T16:49:04.318Z,98516.50
2022-08-07T16:51:57.527Z,98520.28
2022-08-07T16:54:35.195Z,98513.78
2022-08-07T16:58:01.037Z,98525.16
2022-08-07T17:00:30.214Z,98513.34
2022-08-07T17:03:59.429Z,98520.56
2022-08-07T17:06:50.173Z,98521.50
2022-08-07T17:10:06.385Z,98505.94
2022-08-07T17:12:39.838Z,98514.03
2022-08-07T17:15:29.005Z,98521.03
2022-08-07T17:18:26.185Z,98527.09
2022-08-07T17:20:56.575Z,98514.16
2022-08-07T17:23:42.392Z,98525.22
2022-08-07T17:26:24.209Z,98513.25
2022-08-07T17:30:13.148Z,98515.59
2022-08-07T17:32:30.605Z,98521.97
2022-08-07T17:35:51.057Z,98533.53
2022-08-07T17:38:17.719Z,98531.03
2022-08-07T17:42:01.627Z,98533.34
2022-08-07T17:44:08.300Z,98534.91
2022-08-07T17:46:52.441Z,98532.75
2022-08-07T17:49:28.017Z,98536.94
2022-08-07T17:52:10.620Z,98538.66
2022-08-07T17:54:53.753Z,98539.59
2022-08-07T17:57:59.012Z,98538.34
2022-08-07T18:00:34.608Z,98543.97
2022-08-07T18:03:26.716Z,98542.69
2022-08-07T18:06:06.418Z,98548.91
2022-08-07T18:09:01.999Z,98538.22
2022-08-07T18:12:06.635Z,98544.69
2022-08-07T18:14:37.354Z,98540.81
2022-08-07T18:18:47.683Z,98546.72
2022-08-07T18:21:05.868Z,98561.59
2022-08-07T18:23:42.024Z,98550.75
2022-08-07T18:26:14.843Z,98552.56
2022-08-07T18:29:05.399Z,98559.53
2022-08-07T18:32:10.121Z,98556.06
2022-08-07T18:35:00.647Z,98564.84
2022-08-07T18:38:56.828Z,98574.25
2022-08-07T18:40:53.414Z,98569.41
2022-08-07T18:43:57.349Z,98581.19
2022-08-07T18:46:34.119Z,98578.34
2022-08-07T18:50:30.516Z,98587.75
2022-08-07T18:52:37.675Z,98590.31
2022-08-07T18:55:41.056Z,98590.09
2022-08-07T18:58:26.102Z,98594.56
2022-08-07T19:01:06.997Z,98606.56
2022-08-07T19:03:49.472Z,98596.88
2022-08-07T19:06:33.827Z,98609.41
2022-08-07T19:09:56.588Z,98610.50
2022-08-07T19:12:15.663Z,98617.56
2022-08-07T19:16:03.272Z,98615.34
2022-08-07T19:18:11.576Z,98621.72
2022-08-07T19:21:09.228Z,98631.69
2022-08-07T19:23:58.489Z,98631.91
2022-08-07T19:27:10.292Z,98635.84
2022-08-07T19:31:05.679Z,98635.72
2022-08-07T19:32:34.439Z,98637.97
2022-08-07T19:35:15.325Z,98636.94
2022-08-07T19:37:57.169Z,98648.75
2022-08-07T19:40:30.813Z,98651.13
2022-08-07T19:43:04.085Z,98652.78
2022-08-07T19:46:05.029Z,98652.34
2022-08-07T19:48:43.676Z,98642.75
2022-08-07T19:51:19.099Z,98642.88
2022-08-07T19:54:34.120Z,98645.00
2022-08-07T19:57:51.750Z,98644.66
2022-08-07T19:59:41.993Z,98636.88
2022-08-07T20:02:19.537Z,98636.31
2022-08-07T20:04:56.000Z,98641.75
2022-08-07T20:07:47.363Z,98635.31
2022-08-07T20:10:36.615Z,98634.97
2022-08-07T20:13:23.560Z,98640.31
2022-08-07T20:15:57.866Z,98641.19
2022-08-07T20:18:32.571Z,98634.75
2022-08-07T20:21:21.350Z,98642.41
2022-08-07T20:23:54.880Z,98644.88
2022-08-07T20:26:38.953Z,98644.00
2022-08-07T20:29:48.618Z,98631.38
2022-08-07T20:32:23.113Z,98643.16
2022-08-07T20:34:57.156Z,98636.25
2022-08-07T20:37:34.128Z,98633.78
2022-08-07T20:40:32.076Z,98631.31
2022-08-07T20:43:00.340Z,98630.25
2022-08-07T20:46:26.962Z,98627.47
2022-08-07T20:48:30.249Z,98629.19
2022-08-07T20:51:02.500Z,98630.00
2022-08-07T20:54:02.018Z,98630.97
2022-08-07T20:56:34.878Z,98627.69
2022-08-07T21:00:04.606Z,98633.16
2022-08-07T21:01:58.569Z,98644.03
2022-08-07T21:04:32.155Z,98639.94
2022-08-07T21:07:14.623Z,98636.75
2022-08-07T21:10:00.245Z,98631.81
2022-08-07T21:12:33.284Z,98631.63
2022-08-07T21:15:10.073Z,98626.59
2022-08-07T21:18:02.670Z,98639.78
2022-08-07T21:20:40.620Z,98640.50
2022-08-07T21:23:42.736Z,98636.84
2022-08-07T21:26:34.759Z,98634.84
2022-08-07T21:29:15.969Z,98632.59
2022-08-07T21:32:46.796Z,98642.69
2022-08-07T21:35:01.270Z,98641.72
2022-08-07T21:37:58.692Z,98640.88
2022-08-07T21:40:35.856Z,98636.81
2022-08-07T21:43:12.157Z,98644.03
2022-08-07T21:46:09.984Z,98640.78
2022-08-07T21:48:43.764Z,98643.06
2022-08-07T21:51:32.668Z,98652.63
2022-08-07T21:54:24.885Z,98655.81
2022-08-07T21:57:16.121Z,98653.19
2022-08-07T22:00:21.941Z,98663.47
2022-08-07T22:03:03.531Z,98654.19
2022-08-07T22:05:52.611Z,98657.88
2022-08-07T22:08:25.170Z,98660.59
2022-08-07T22:11:00.829Z,98661.66
2022-08-07T22:13:52.212Z,98659.66
2022-08-07T22:16:40.096Z,98655.78
2022-08-07T22:19:29.743Z,98659.97
2022-08-07T22:22:27.974Z,98663.81
2022-08-07T22:25:07.596Z,98660.63
2022-08-07T22:28:20.079Z,98663.25
2022-08-07T22:30:39.028Z,98668.16
2022-08-07T22:33:16.136Z,98657.84
2022-08-07T22:36:15.108Z,98660.72
2022-08-07T22:38:52.609Z,98673.22
2022-08-07T22:42:03.000Z,98670.06
2022-08-07T22:44:26.034Z,98670.81
2022-08-07T22:47:33.520Z,98676.94
2022-08-07T22:50:33.599Z,98669.00
2022-08-07T22:54:05.612Z,98676.28
2022-08-07T22:56:18.896Z,98675.63
2022-08-07T22:59:26.779Z,98667.13
2022-08-07T23:02:09.855Z,98675.50
2022-08-07T23:04:57.933Z,98667.50
2022-08-07T23:07:50.420Z,98661.22
2022-08-07T23:10:42.041Z,98660.69
2022-08-07T23:13:48.956Z,98672.53
2022-08-07T23:16:54.643Z,98668.00
2022-08-07T23:19:57.982Z,98669.22
2022-08-07T23:22:43.345Z,98668.06
2022-08-07T23:25:28.597Z,98668.09
2022-08-07T23:28:28.414Z,98680.00
2022-08-07T23:32:50.140Z,98673.84
2022-08-07T23:34:38.040Z,98668.91
2022-08-07T23:37:34.676Z,98673.97
2022-08-07T23:40:17.671Z,98675.81
2022-08-07T23:43:16.795Z,98670.50
2022-08-07T23:46:03.358Z,98665.19
2022-08-07T23:49:01.288Z,98660.91
2022-08-07T23:53:05.506Z,98666.00
2022-08-07T23:54:43.841Z,98666.09
2022-08-07T23:57:35.934Z,98663.53
